Time;durP1;ratioP1;P1;durP2;ratioP2;P2;SDS_P1;SDS_P2;PMS_P1;PMS_P2;Temp;Humidity;BMP_temperature;BMP_pressure;BME280_temperature;BME280_humidity;BME280_pressure;Samples;Min_cycle;Max_cycle;Signal;HPM_P1;HPM_P2
2022/01/25 00:15:20;;;;;;;22.45;10.00;;;;;;;-9.41;77.83;100581.38;4751509;30;20184;-65
2022/01/25 00:26:04;;;;;;;11.43;6.82;;;;;;;-9.29;78.12;100555.84;4751139;30;20499;-62
2022/01/25 00:33:31;;;;;;;5.93;3.08;;;;;;;-9.17;77.09;100542.34;4751160;30;20043;-64
2022/01/25 00:35:57;;;;;;;17.30;8.40;;;;;;;-9.35;76.92;100537.63;4736949;30;20053;-64
2022/01/25 00:38:23;;;;;;;12.00;6.40;;;;;;;-9.62;77.02;100537.00;4738570;30;20043;-62
2022/01/25 00:40:48;;;;;;;15.90;9.40;;;;;;;-9.82;78.58;100538.25;4754986;30;20047;-62
2022/01/25 00:43:13;;;;;;;21.73;9.98;;;;;;;-9.81;79.22;100537.38;4755062;30;20054;-63
2022/01/25 00:45:39;;;;;;;15.70;7.75;;;;;;;-9.81;79.49;100532.22;4738846;30;20055;-63
2022/01/25 00:48:06;;;;;;;16.27;9.23;;;;;;;-9.67;79.50;100525.69;4738806;30;20055;-63
2022/01/25 00:50:38;;;;;;;17.50;8.40;;;;;;;-9.62;78.70;100526.69;4754776;30;20498;-63
2022/01/25 00:55:29;;;;;;;14.68;6.82;;;;;;;-9.30;78.97;100512.81;4772592;29;20142;-63
2022/01/25 00:57:54;;;;;;;11.15;6.63;;;;;;;-9.21;79.02;100501.78;4769813;29;20070;-63
2022/01/25 01:00:19;;;;;;;14.52;7.43;;;;;;;-9.15;78.28;100507.09;4754654;29;20082;-63
2022/01/25 01:02:44;;;;;;;14.20;7.70;;;;;;;-9.07;77.95;100499.50;4772571;29;20126;-63
2022/01/25 01:05:09;;;;;;;14.23;6.90;;;;;;;-9.09;77.08;100490.84;4756137;29;20061;-62
2022/01/25 01:07:34;;;;;;;19.27;9.15;;;;;;;-9.08;77.57;100483.13;4772278;29;20051;-63
2022/01/25 01:10:00;;;;;;;13.48;7.68;;;;;;;-9.06;77.69;100476.31;4756142;29;20080;-63
2022/01/25 01:15:18;;;;;;;14.10;7.22;;;;;;;-8.94;77.28;100480.84;4772427;29;20134;-60
2022/01/25 01:31:53;;;;;;;10.32;5.72;;;;;;;-8.75;77.44;100444.19;4699258;30;20157;-62
2022/01/25 01:42:00;;;;;;;16.20;8.50;;;;;;;-9.27;77.86;100412.19;4690189;30;20064;-62
2022/01/25 01:44:38;;;;;;;17.90;7.68;;;;;;;-9.19;78.27;100412.31;4704620;30;20063;-64
2022/01/25 01:47:08;;;;;;;19.35;9.57;;;;;;;-9.27;78.25;100409.59;4702246;30;20050;-63
2022/01/25 01:49:43;;;;;;;17.95;9.73;;;;;;;-9.26;78.73;100403.59;4699701;30;20146;-63
2022/01/25 01:52:10;;;;;;;13.05;7.13;;;;;;;-9.19;78.90;100402.88;4698633;30;20071;-63
2022/01/25 01:54:36;;;;;;;19.25;8.70;;;;;;;-9.19;79.22;100397.72;4698888;30;20068;-63
2022/01/25 01:57:00;;;;;;;11.43;5.70;;;;;;;-9.04;79.71;100397.13;4683829;30;20110;-63
2022/01/25 01:59:26;;;;;;;15.30;8.52;;;;;;;-8.99;78.98;100389.47;4698739;30;20064;-63
2022/01/25 02:01:51;;;;;;;11.80;6.55;;;;;;;-8.92;79.03;100388.75;4700698;30;20056;-63
2022/01/25 02:04:17;;;;;;;15.27;7.72;;;;;;;-8.87;78.85;100384.53;4713823;30;20435;-64
2022/01/25 02:06:42;;;;;;;16.80;7.60;;;;;;;-8.85;77.93;100383.72;4686932;30;20048;-69
2022/01/25 02:09:08;;;;;;;13.77;6.32;;;;;;;-8.86;77.58;100387.13;4748469;29;20111;-64
2022/01/25 02:11:33;;;;;;;15.48;8.35;;;;;;;-8.95;77.16;100386.09;4755381;29;20444;-63
2022/01/25 02:14:03;;;;;;;16.73;7.68;;;;;;;-8.97;76.77;100392.94;4771307;29;20413;-64
2022/01/25 02:16:42;;;;;;;12.77;7.28;;;;;;;-8.96;75.73;100377.47;4771724;29;20866;-64
2022/01/25 02:24:37;;;;;;;12.05;7.13;;;;;;;-8.79;77.59;100367.44;4771264;29;20085;-61
2022/01/25 02:27:03;;;;;;;13.30;7.13;;;;;;;-8.75;76.46;100360.63;4739780;29;20066;-62
2022/01/25 02:29:29;;;;;;;13.40;6.68;;;;;;;-8.66;77.15;100364.22;4754801;29;20053;-67
2022/01/25 02:31:56;;;;;;;15.93;8.60;;;;;;;-8.59;76.77;100366.09;4771099;29;20046;-70
2022/01/25 02:34:22;;;;;;;16.73;9.27;;;;;;;-8.55;77.06;100362.69;4754807;29;20130;-64
2022/01/25 02:37:02;;;;;;;15.90;8.35;;;;;;;-8.55;76.07;100362.69;4770766;29;20415;-67
2022/01/25 02:39:28;;;;;;;20.88;11.05;;;;;;;-8.60;75.11;100359.16;4770974;29;20621;-61
2022/01/25 02:41:53;;;;;;;17.23;8.05;;;;;;;-8.56;75.64;100358.34;4771258;29;20530;-66
2022/01/25 02:44:24;;;;;;;17.25;10.05;;;;;;;-8.62;74.67;100352.22;4770774;29;20162;-63
2022/01/25 02:49:16;;;;;;;13.75;7.60;;;;;;;-8.48;75.80;100338.69;4770896;29;20129;-64
2022/01/25 02:51:44;;;;;;;13.05;7.63;;;;;;;-8.43;75.84;100331.00;4770443;29;20101;-64
2022/01/25 02:54:10;;;;;;;12.75;7.45;;;;;;;-8.37;75.07;100330.22;4754579;29;20130;-64
2022/01/25 02:56:38;;;;;;;17.58;8.20;;;;;;;-8.38;75.00;100333.66;4770760;29;20047;-63
2022/01/25 02:59:06;;;;;;;17.30;9.13;;;;;;;-8.39;75.12;100326.75;4753584;29;20495;-63
2022/01/25 03:01:31;;;;;;;13.40;8.18;;;;;;;-8.32;74.83;100329.44;4770632;29;20054;-62
2022/01/25 03:03:55;;;;;;;14.00;7.38;;;;;;;-8.29;73.77;100323.41;4770632;29;20047;-62
2022/01/25 03:06:22;;;;;;;12.23;7.22;;;;;;;-8.21;75.57;100324.38;4770295;29;20053;-63
2022/01/25 03:08:48;;;;;;;18.25;8.80;;;;;;;-8.30;74.61;100329.44;4783133;29;20054;-65
2022/01/25 03:11:13;;;;;;;20.15;9.77;;;;;;;-8.27;73.99;100326.91;4788758;29;20498;-64
2022/01/25 03:13:49;;;;;;;16.10;8.32;;;;;;;-8.20;74.20;100324.41;4788396;29;20857;-63
2022/01/25 03:16:23;;;;;;;17.17;9.93;;;;;;;-8.22;73.18;100318.34;4787833;29;20069;-63
2022/01/25 03:18:51;;;;;;;20.70;9.75;;;;;;;-8.27;72.97;100308.81;4772583;29;20039;-64
2022/01/25 03:21:20;;;;;;;16.52;8.45;;;;;;;-8.27;74.04;100316.56;4753546;29;20058;-65
2022/01/25 03:23:46;;;;;;;20.20;7.30;;;;;;;-8.35;73.94;100308.69;4753750;29;20046;-62
2022/01/25 03:26:11;;;;;;;14.77;7.82;;;;;;;-8.38;73.69;100302.63;4769676;29;20057;-61
2022/01/25 03:28:35;;;;;;;11.73;6.47;;;;;;;-8.40;74.66;100304.31;4769792;29;20057;-68
2022/01/25 03:31:00;;;;;;;15.50;7.90;;;;;;;-8.52;74.39;100305.88;4770120;29;20050;-62
2022/01/25 03:33:26;;;;;;;17.77;8.75;;;;;;;-8.60;75.93;100297.13;4738298;29;20104;-63
2022/01/25 03:35:51;;;;;;;12.95;6.75;;;;;;;-8.65;75.44;100303.94;4769643;29;20055;-62
2022/01/25 03:38:16;;;;;;;12.77;6.85;;;;;;;-8.47;76.31;100306.81;4769619;29;20047;-62
2022/01/25 03:40:41;;;;;;;21.20;10.23;;;;;;;-8.73;77.27;100292.63;4770013;29;20526;-62
2022/01/25 03:43:08;;;;;;;15.45;7.55;;;;;;;-8.84;77.58;100295.03;4769290;29;20565;-63
2022/01/25 03:45:35;;;;;;;16.70;8.65;;;;;;;-9.03;76.96;100286.94;4770689;29;20058;-63
2022/01/25 03:49:49;;;;;;;20.85;9.90;;;;;;;-9.00;77.15;100297.31;4738985;29;20053;-62
2022/01/25 03:50:48;;;;;;;15.98;7.95;;;;;;;-8.91;77.57;100284.53;4738777;29;20042;-62
2022/01/25 03:53:13;;;;;;;14.57;8.18;;;;;;;-8.90;78.40;100282.00;4768804;29;20105;-61
2022/01/25 03:55:39;;;;;;;19.02;10.23;;;;;;;-8.95;77.05;100280.19;4722272;29;20046;-62
2022/01/25 03:58:04;;;;;;;16.38;8.75;;;;;;;-8.91;76.94;100279.38;4751819;29;20122;-60
2022/01/25 04:00:29;;;;;;;20.60;10.50;;;;;;;-8.94;77.04;100275.06;4722069;29;20054;-62
2022/01/25 04:03:00;;;;;;;17.80;10.20;;;;;;;-8.86;77.08;100267.41;4768321;29;20415;-62
2022/01/25 04:05:36;;;;;;;17.85;8.35;;;;;;;-8.74;77.53;100266.75;4766009;29;20049;-62
2022/01/25 04:08:02;;;;;;;23.02;10.63;;;;;;;-8.77;76.20;100258.94;4768175;29;20050;-62
2022/01/25 04:10:28;;;;;;;23.83;11.07;;;;;;;-8.77;76.12;100262.41;4750278;29;20043;-63
2022/01/25 04:12:52;;;;;;;17.63;8.95;;;;;;;-8.69;76.57;100259.94;4766456;29;20057;-63
2022/01/25 04:15:17;;;;;;;21.77;11.32;;;;;;;-8.70;76.83;100261.66;4768991;29;20043;-62
2022/01/25 11:45:14;;;;;;;10.32;5.95;;;;;;;-7.03;73.41;99600.38;5593657;24;20066;-66
2022/01/25 11:47:40;;;;;;;13.60;5.93;;;;;;;-6.94;73.45;99601.22;4822969;29;20110;-66
2022/01/25 11:50:10;;;;;;;12.98;7.13;;;;;;;-6.96;73.47;99609.84;4824237;29;20053;-66
2022/01/25 11:52:36;;;;;;;8.70;5.93;;;;;;;-7.03;73.28;99612.47;4823995;29;20568;-66
2022/01/25 11:55:31;;;;;;;10.02;5.90;;;;;;;-6.94;73.14;99614.19;4807628;29;20068;-66
2022/01/25 11:58:04;;;;;;;9.80;6.00;;;;;;;-6.84;73.67;99614.16;4807555;29;20048;-66
2022/01/25 12:00:56;;;;;;;11.35;6.60;;;;;;;-6.82;74.18;99621.94;4823753;29;20520;-66
2022/01/25 12:03:34;;;;;;;11.30;6.78;;;;;;;-6.93;74.31;99616.75;4823757;29;20403;-68
2022/01/25 12:06:07;;;;;;;5.63;3.72;;;;;;;-6.81;74.28;99610.69;4823806;29;20385;-68
2022/01/25 12:12:22;;;;;;;10.48;5.90;;;;;;;-6.98;75.09;99614.16;4805848;29;20423;-67
2022/01/25 12:14:41;;;;;;;10.73;5.88;;;;;;;-7.08;74.43;99607.28;4796123;29;20077;-65
2022/01/25 12:17:06;;;;;;;14.15;7.22;;;;;;;-7.12;75.04;99608.16;4794987;29;20143;-67
2022/01/25 12:19:33;;;;;;;10.02;6.60;;;;;;;-7.09;73.85;99608.16;4806674;29;20136;-66
2022/01/25 12:22:12;;;;;;;13.52;6.47;;;;;;;-7.04;75.04;99605.56;4823203;29;20156;-66
2022/01/25 12:24:58;;;;;;;10.88;6.57;;;;;;;-7.10;74.72;99608.16;4804895;29;20045;-66
2022/01/25 12:27:57;;;;;;;9.30;5.38;;;;;;;-6.96;74.87;99606.41;4823409;29;20484;-67
2022/01/25 12:30:27;;;;;;;13.63;7.20;;;;;;;-7.11;73.99;99599.50;4765688;29;20570;-67
2022/01/25 12:33:00;;;;;;;13.73;8.13;;;;;;;-7.05;74.02;99603.84;4771032;29;20049;-68
2022/01/25 12:38:50;;;;;;;9.60;6.13;;;;;;;-6.91;74.16;99606.41;4769674;29;20050;-68
2022/01/25 12:41:16;;;;;;;14.07;7.15;;;;;;;-6.89;73.57;99600.34;4753276;29;20139;-67
2022/01/25 12:43:51;;;;;;;11.02;6.18;;;;;;;-7.00;73.04;99591.75;4770222;29;20046;-67
2022/01/25 12:49:25;;;;;;;8.05;5.05;;;;;;;-6.84;73.66;99574.41;4769623;29;20058;-65
2022/01/25 12:51:52;;;;;;;13.40;7.30;;;;;;;-6.92;74.33;99568.41;4770622;29;20165;-69
2022/01/25 12:54:17;;;;;;;14.27;6.82;;;;;;;-6.95;73.20;99574.44;4756140;29;20059;-66
2022/01/25 12:56:50;;;;;;;13.05;6.63;;;;;;;-6.95;74.04;99577.03;4770180;29;20111;-66
2022/01/25 12:59:18;;;;;;;11.32;6.18;;;;;;;-6.86;74.55;99563.19;4770249;29;20121;-69
2022/01/25 13:01:46;;;;;;;11.88;7.05;;;;;;;-6.96;73.65;99564.94;4770476;29;20054;-68
2022/01/25 13:04:12;;;;;;;12.75;7.75;;;;;;;-7.13;73.45;99561.53;4755046;29;20086;-67
2022/01/25 13:06:50;;;;;;;11.05;7.68;;;;;;;-7.16;73.12;99564.13;4772252;29;20061;-67
2022/01/25 13:09:23;;;;;;;11.68;6.45;;;;;;;-7.22;73.53;99558.97;4808324;29;20053;-67
2022/01/25 13:14:45;;;;;;;11.20;7.03;;;;;;;-7.27;72.99;99551.19;4808399;29;20110;-68
2022/01/25 13:17:16;;;;;;;11.70;6.53;;;;;;;-7.20;74.17;99557.22;4816364;29;20069;-67
2022/01/25 13:19:50;;;;;;;10.25;5.53;;;;;;;-7.33;74.49;99546.00;4827332;29;20045;-68
2022/01/25 13:22:24;;;;;;;11.45;6.45;;;;;;;-7.33;73.63;99546.00;4827032;29;20111;-67
2022/01/25 13:25:00;;;;;;;12.30;7.45;;;;;;;-7.44;73.72;99538.25;4826889;29;20132;-73
2022/01/25 13:27:33;;;;;;;16.30;8.57;;;;;;;-7.46;73.14;99539.16;4826766;29;20076;-67
2022/01/25 13:33:05;;;;;;;11.63;5.85;;;;;;;-7.39;74.40;99538.28;4826840;29;20053;-67
2022/01/25 13:35:34;;;;;;;13.27;6.90;;;;;;;-7.33;74.56;99541.69;4826590;29;20243;-67
2022/01/25 13:38:02;;;;;;;12.20;6.55;;;;;;;-7.22;74.52;99531.31;4826634;29;20440;-67
2022/01/25 13:40:36;;;;;;;13.05;7.25;;;;;;;-7.20;75.05;99537.38;4826977;29;20109;-68
2022/01/25 13:46:05;;;;;;;16.25;8.30;;;;;;;-7.35;74.30;99519.28;4741176;30;20618;-67
2022/01/25 13:48:33;;;;;;;9.68;4.32;;;;;;;-7.22;75.02;99515.78;4752747;30;20566;-66
2022/01/25 13:51:31;;;;;;;16.02;8.77;;;;;;;-7.24;75.44;99507.19;4753053;30;20051;-66
2022/01/25 13:53:59;;;;;;;17.13;7.13;;;;;;;-7.24;75.54;99511.50;4750817;30;20063;-70
2022/01/25 13:56:33;;;;;;;12.73;5.25;;;;;;;-7.23;75.06;99516.69;4754432;29;20523;-66
2022/01/25 13:59:06;;;;;;;15.25;8.50;;;;;;;-7.70;74.96;99527.94;4758839;30;20067;-65
2022/01/25 14:01:33;;;;;;;6.53;3.05;;;;;;;-7.71;76.12;99521.06;4759430;30;20055;-68
2022/01/25 14:04:04;;;;;;;12.82;7.05;;;;;;;-7.76;76.37;99509.81;4757711;30;20102;-68
2022/01/25 14:06:35;;;;;;;17.05;9.95;;;;;;;-8.04;76.89;99520.19;4751606;30;20550;-66
2022/01/25 14:09:16;;;;;;;18.83;8.80;;;;;;;-8.01;77.89;99523.59;4751293;30;20050;-67
2022/01/25 14:23:22;;;;;;;17.50;8.05;;;;;;;-7.79;77.93;99512.44;4809249;29;20060;-66
2022/01/25 14:25:59;;;;;;;20.05;8.48;;;;;;;-7.72;77.34;99515.88;4825837;29;20061;-66
2022/01/25 14:28:25;;;;;;;16.83;9.52;;;;;;;-7.63;77.86;99508.09;4825576;29;20461;-67
2022/01/25 14:30:54;;;;;;;21.90;9.65;;;;;;;-7.71;78.27;99510.69;4825799;29;20140;-66
2022/01/25 14:33:27;;;;;;;22.60;10.35;;;;;;;-7.74;77.73;99505.50;4809148;29;20045;-67
2022/01/25 14:36:00;;;;;;;17.03;7.77;;;;;;;-7.78;78.33;99497.75;4825528;29;20057;-66
2022/01/25 14:38:28;;;;;;;20.13;9.10;;;;;;;-7.73;77.40;99499.47;4809317;29;20041;-67
2022/01/25 14:41:03;;;;;;;26.33;10.77;;;;;;;-7.71;77.06;99490.00;4809247;29;20085;-66
2022/01/25 14:43:30;;;;;;;17.52;10.32;;;;;;;-7.78;76.58;99489.97;4825445;29;20477;-66
2022/01/25 14:46:13;;;;;;;23.98;10.48;;;;;;;-7.71;76.52;99490.00;4808649;29;20065;-66
2022/01/25 14:48:55;;;;;;;16.73;7.97;;;;;;;-7.67;77.64;99472.72;4793425;29;20049;-67
2022/01/25 14:51:20;;;;;;;16.77;9.25;;;;;;;-7.73;77.00;99468.44;4824981;29;20084;-66
2022/01/25 14:53:46;;;;;;;24.52;11.73;;;;;;;-7.76;76.64;99462.38;4824988;29;20080;-67
2022/01/25 14:56:47;;;;;;;28.67;13.45;;;;;;;-7.71;77.01;99451.19;4825564;29;20049;-67
2022/01/25 14:59:24;;;;;;;12.00;7.18;;;;;;;-7.55;76.55;99452.00;4808701;29;20045;-67
2022/01/25 15:01:54;;;;;;;22.23;11.82;;;;;;;-7.69;77.43;99446.00;4825209;29;20055;-66
2022/01/25 15:04:21;;;;;;;22.83;11.07;;;;;;;-7.83;77.41;99437.38;4825352;29;20076;-66
2022/01/25 15:06:47;;;;;;;23.83;12.38;;;;;;;-7.86;77.70;99440.84;4808610;29;20054;-65
2022/01/25 15:09:14;;;;;;;26.23;11.10;;;;;;;-7.88;77.46;99432.22;4808237;29;20098;-67
2022/01/25 15:11:39;;;;;;;15.70;7.57;;;;;;;-7.91;77.32;99416.72;4824940;29;20056;-67
2022/01/25 15:14:09;;;;;;;28.42;15.60;;;;;;;-8.00;77.98;99427.03;4808567;29;20069;-66
2022/01/25 15:16:33;;;;;;;21.50;9.07;;;;;;;-7.91;77.81;99419.31;4825084;29;20059;-68
2022/01/25 15:18:59;;;;;;;24.60;12.65;;;;;;;-7.88;77.99;99406.34;4824925;29;20045;-69
2022/01/25 15:21:24;;;;;;;18.65;9.27;;;;;;;-7.68;78.00;99408.91;4824795;29;20113;-67
2022/01/25 15:26:42;;;;;;;27.10;11.68;;;;;;;-7.77;76.87;99394.25;4824872;29;20045;-69
2022/01/25 15:29:08;;;;;;;19.55;8.48;;;;;;;-7.81;76.66;99392.53;4824759;29;20050;-66
2022/01/25 15:31:35;;;;;;;16.73;7.57;;;;;;;-7.73;76.18;99380.44;4824817;29;20049;-66
2022/01/25 15:34:02;;;;;;;7.82;5.47;;;;;;;-7.79;76.40;99383.06;4808062;29;20049;-67
2022/01/25 15:36:27;;;;;;;19.52;10.23;;;;;;;-7.70;75.87;99364.91;4824738;29;20079;-68
2022/01/25 15:38:53;;;;;;;26.80;10.15;;;;;;;-8.01;76.50;99359.81;4824351;29;20510;-67
2022/01/25 15:41:22;;;;;;;22.05;10.25;;;;;;;-7.91;77.28;99364.97;4790122;29;20068;-66
2022/01/25 15:43:59;;;;;;;21.08;12.05;;;;;;;-8.17;77.17;99358.97;4806293;29;20117;-67
2022/01/25 15:46:30;;;;;;;15.30;6.70;;;;;;;-8.19;77.36;99360.69;4806326;29;20521;-67
2022/01/25 15:49:25;;;;;;;21.95;10.75;;;;;;;-8.16;77.77;99363.28;4806187;29;20050;-67
2022/01/25 15:51:56;;;;;;;26.20;11.68;;;;;;;-8.18;78.00;99376.22;4790386;29;20050;-67
2022/01/25 15:54:22;;;;;;;19.33;9.15;;;;;;;-7.92;78.46;99378.78;4787007;29;20771;-67
2022/01/25 15:56:49;;;;;;;28.10;13.63;;;;;;;-8.15;78.78;99385.69;4800062;29;20053;-66
2022/01/25 15:59:19;;;;;;;20.38;10.40;;;;;;;-8.03;77.93;99390.00;4805911;29;20057;-67
2022/01/25 16:01:48;;;;;;;23.52;10.68;;;;;;;-7.99;78.72;99396.88;4806282;29;20049;-67
2022/01/25 16:04:12;;;;;;;20.60;10.18;;;;;;;-7.95;78.77;99404.63;4806195;29;20878;-67
2022/01/25 16:06:37;;;;;;;23.75;11.10;;;;;;;-7.88;79.14;99406.34;4805998;29;20501;-67
2022/01/25 16:09:02;;;;;;;25.20;11.93;;;;;;;-7.82;78.67;99406.34;4805949;29;20399;-67
2022/01/25 16:11:28;;;;;;;24.45;12.48;;;;;;;-7.88;77.74;99402.88;4771741;29;20494;-67
2022/01/25 16:13:54;;;;;;;27.90;13.68;;;;;;;-7.93;78.71;99410.66;4800865;29;20049;-67
2022/01/25 16:16:20;;;;;;;22.23;10.75;;;;;;;-7.80;78.89;99403.75;4805977;29;20061;-68
2022/01/25 16:18:50;;;;;;;22.23;11.60;;;;;;;-7.71;78.23;99412.34;4804919;29;20553;-67
2022/01/25 16:21:43;;;;;;;21.15;10.57;;;;;;;-7.58;78.93;99409.75;4805884;29;20133;-67
2022/01/25 16:24:10;;;;;;;22.13;11.02;;;;;;;-7.63;77.93;99407.16;4804591;29;20037;-66
2022/01/25 16:26:38;;;;;;;27.33;12.85;;;;;;;-7.84;78.44;99400.31;4823465;29;20105;-66
2022/01/25 16:29:03;;;;;;;24.25;12.40;;;;;;;-7.67;78.38;99392.50;4823527;29;20041;-69
2022/01/25 16:31:32;;;;;;;20.55;9.88;;;;;;;-7.64;78.45;99395.06;4804384;29;20052;-67
2022/01/25 16:33:59;;;;;;;16.60;7.90;;;;;;;-7.54;78.86;99383.81;4823678;29;20056;-67
2022/01/25 16:36:25;;;;;;;14.75;7.60;;;;;;;-7.52;79.07;99383.81;4822899;29;20081;-73
2022/01/25 16:38:51;;;;;;;22.83;10.65;;;;;;;-7.56;78.98;99395.91;4824258;29;20045;-70
2022/01/25 16:41:16;;;;;;;22.08;10.73;;;;;;;-7.66;79.26;99398.53;4824018;29;20115;-72
2022/01/25 16:43:43;;;;;;;23.75;11.75;;;;;;;-7.74;78.42;99391.66;4824192;29;20465;-73
2022/01/25 16:46:09;;;;;;;23.63;10.38;;;;;;;-7.62;78.69;99388.16;4823759;29;20091;-73
2022/01/25 16:48:35;;;;;;;25.35;11.77;;;;;;;-7.66;78.26;99381.28;4805177;29;20425;-72
2022/01/25 16:51:00;;;;;;;27.42;11.05;;;;;;;-7.63;79.35;99383.00;4824045;29;20077;-69
2022/01/25 16:53:28;;;;;;;30.92;12.52;;;;;;;-7.61;79.03;99378.69;4824348;29;20127;-72
2022/01/25 16:55:53;;;;;;;22.58;11.25;;;;;;;-7.54;78.99;99376.06;4807472;29;20060;-68
2022/01/25 16:58:19;;;;;;;17.63;9.35;;;;;;;-7.47;79.30;99366.56;4822967;29;20034;-68
2022/01/25 17:00:44;;;;;;;30.38;11.73;;;;;;;-7.50;78.96;99367.44;4822168;29;20049;-70
2022/01/25 17:03:12;;;;;;;25.63;10.15;;;;;;;-7.47;77.62;99371.75;4790819;29;20045;-71
2022/01/25 17:05:39;;;;;;;23.55;11.77;;;;;;;-7.53;77.61;99369.16;4821256;29;20053;-72
2022/01/25 17:08:07;;;;;;;25.60;12.18;;;;;;;-7.56;77.49;99379.53;4804755;29;20042;-66
2022/01/25 17:10:33;;;;;;;20.35;11.07;;;;;;;-7.53;77.09;99370.03;4822439;29;20405;-68
2022/01/25 17:13:01;;;;;;;28.45;12.60;;;;;;;-7.65;76.91;99366.59;4806914;29;20127;-73
2022/01/25 17:15:28;;;;;;;21.73;10.95;;;;;;;-7.61;77.78;99357.97;4822589;29;20051;-71
2022/01/25 17:17:56;;;;;;;22.45;11.10;;;;;;;-7.54;77.55;99364.84;4817570;29;20117;-69
2022/01/25 17:20:21;;;;;;;27.95;14.20;;;;;;;-7.57;78.12;99360.56;4792025;29;20160;-70
2022/01/25 17:22:46;;;;;;;24.30;12.15;;;;;;;-7.52;78.30;99363.13;4808477;29;20128;-71
2022/01/25 17:25:11;;;;;;;25.85;11.63;;;;;;;-7.57;77.84;99357.97;4776799;29;20061;-68
2022/01/25 17:27:38;;;;;;;22.65;11.77;;;;;;;-7.55;78.14;99358.81;4808383;29;20059;-69
2022/01/25 17:30:06;;;;;;;26.95;11.80;;;;;;;-7.54;78.59;99367.44;4776706;29;20092;-69
2022/01/25 17:32:32;;;;;;;16.65;10.25;;;;;;;-7.49;78.05;99358.81;4791385;29;20451;-70
2022/01/25 17:34:58;;;;;;;26.40;13.45;;;;;;;-7.57;78.94;99355.38;4776442;29;20599;-66
2022/01/25 17:37:24;;;;;;;24.55;12.57;;;;;;;-7.56;78.78;99351.91;4792138;29;20052;-70
2022/01/25 17:39:51;;;;;;;32.38;13.57;;;;;;;-7.52;79.23;99347.59;4793841;29;20554;-70
2022/01/25 17:42:17;;;;;;;25.35;13.05;;;;;;;-7.43;78.59;99342.38;4809167;29;20094;-72
2022/01/25 17:44:42;;;;;;;26.30;13.68;;;;;;;-7.44;78.25;99349.28;4815392;29;20049;-64
2022/01/25 17:47:12;;;;;;;21.08;11.45;;;;;;;-7.36;78.78;99344.06;4809713;29;20148;-69
2022/01/25 17:49:40;;;;;;;27.95;14.80;;;;;;;-7.32;78.78;99335.41;4826239;29;20374;-69
2022/01/25 17:52:07;;;;;;;22.35;11.82;;;;;;;-7.24;78.73;99337.97;4809658;29;20049;-68
2022/01/25 17:54:35;;;;;;;26.40;14.30;;;;;;;-7.32;78.46;99330.22;4826264;29;20057;-69
2022/01/25 17:57:04;;;;;;;25.50;13.45;;;;;;;-7.30;78.17;99332.81;4826208;29;20038;-67
2022/01/25 17:59:34;;;;;;;23.45;11.80;;;;;;;-7.29;77.15;99331.94;4794667;29;20045;-69
2022/01/25 18:02:02;;;;;;;27.45;14.00;;;;;;;-7.38;77.81;99331.13;4787128;29;20414;-68
2022/01/25 18:04:29;;;;;;;23.58;13.20;;;;;;;-7.40;77.36;99326.81;4787228;29;20473;-71
2022/01/25 18:06:56;;;;;;;27.10;13.02;;;;;;;-7.43;77.29;99311.28;4772827;29;20057;-68
2022/01/25 18:09:23;;;;;;;22.15;11.23;;;;;;;-7.28;77.18;99315.53;4772234;29;20062;-63
2022/01/25 18:11:49;;;;;;;28.35;11.75;;;;;;;-7.36;77.32;99302.66;4788100;29;20054;-64
2022/01/25 18:14:14;;;;;;;20.92;11.60;;;;;;;-7.31;77.04;99303.47;4773767;29;20078;-69
2022/01/25 18:16:40;;;;;;;31.15;14.65;;;;;;;-7.37;76.40;99300.94;4786815;29;20145;-64
2022/01/25 18:19:09;;;;;;;25.17;13.65;;;;;;;-7.39;76.30;99300.94;4771109;29;20057;-65
2022/01/25 18:21:41;;;;;;;18.85;11.10;;;;;;;-7.25;77.17;99300.00;4718523;30;20098;-69
2022/01/25 18:24:35;;;;;;;21.10;11.38;;;;;;;-7.21;76.83;99294.78;4718905;30;20119;-67
2022/01/25 18:26:58;;;;;;;20.17;9.75;;;;;;;-7.10;76.87;99295.56;4704156;30;20131;-68
2022/01/25 18:29:24;;;;;;;26.58;12.93;;;;;;;-7.16;76.24;99298.22;4733876;30;20475;-69
2022/01/25 18:31:51;;;;;;;20.63;12.13;;;;;;;-7.07;76.17;99284.34;4739318;29;20105;-66
2022/01/25 18:34:16;;;;;;;26.75;13.70;;;;;;;-7.23;75.28;99275.81;4775480;29;20085;-68
2022/01/25 18:36:43;;;;;;;24.80;12.98;;;;;;;-7.16;76.16;99281.81;4773965;29;20072;-67
2022/01/25 18:39:14;;;;;;;20.95;12.05;;;;;;;-7.17;74.67;99272.31;4736438;29;20125;-67
2022/01/25 18:41:42;;;;;;;23.25;12.40;;;;;;;-7.17;75.33;99274.91;4738816;29;20061;-65
2022/01/25 18:44:08;;;;;;;21.55;12.30;;;;;;;-7.22;74.90;99269.75;4768929;29;20058;-67
2022/01/25 18:46:35;;;;;;;22.85;11.52;;;;;;;-7.24;75.43;99260.28;4758060;29;20055;-66
2022/01/25 18:49:01;;;;;;;24.60;10.32;;;;;;;-7.16;74.83;99269.72;4735728;30;20135;-64
2022/01/25 18:51:31;;;;;;;19.85;10.57;;;;;;;-7.17;74.94;99261.97;4751985;29;20043;-66
2022/01/25 18:53:58;;;;;;;17.80;10.05;;;;;;;-7.21;74.91;99265.44;4814736;29;20524;-67
2022/01/25 18:56:24;;;;;;;20.95;10.35;;;;;;;-7.10;75.37;99253.25;4825396;29;20132;-65
2022/01/25 18:58:51;;;;;;;13.90;8.40;;;;;;;-7.04;75.35;99258.41;4825370;29;20052;-67
2022/01/25 19:01:20;;;;;;;21.25;10.13;;;;;;;-7.09;74.99;99257.56;4808416;29;20136;-67
2022/01/25 19:03:45;;;;;;;24.60;10.05;;;;;;;-7.21;75.62;99240.38;4811041;29;20458;-71
2022/01/25 19:06:12;;;;;;;14.68;8.10;;;;;;;-7.24;75.34;99242.16;4827939;29;20462;-66
2022/01/25 19:08:38;;;;;;;16.67;9.63;;;;;;;-7.23;75.49;99238.69;4825721;29;20160;-68
2022/01/25 19:11:06;;;;;;;16.67;8.32;;;;;;;-7.22;76.12;99245.59;4807915;29;20046;-70
2022/01/25 19:13:32;;;;;;;20.52;9.98;;;;;;;-7.25;76.45;99238.72;4808524;29;20483;-69
2022/01/25 19:16:01;;;;;;;16.90;9.02;;;;;;;-7.22;76.08;99235.25;4824854;29;20465;-70
2022/01/25 19:18:26;;;;;;;16.13;8.45;;;;;;;-7.18;76.88;99242.09;4827396;29;20041;-69
2022/01/25 19:20:52;;;;;;;17.35;7.45;;;;;;;-7.16;76.75;99233.47;4811058;29;20042;-69
2022/01/25 19:23:17;;;;;;;14.15;7.90;;;;;;;-7.13;76.81;99236.03;4827316;29;20042;-68
2022/01/25 19:25:43;;;;;;;20.35;9.95;;;;;;;-7.13;76.74;99238.63;4809863;29;20084;-68
2022/01/25 19:28:09;;;;;;;15.07;7.35;;;;;;;-7.16;76.40;99237.78;4825287;29;20080;-67
2022/01/25 19:30:39;;;;;;;16.02;9.10;;;;;;;-7.30;76.41;99235.28;4824507;29;20049;-67
2022/01/25 19:33:05;;;;;;;17.42;8.70;;;;;;;-7.49;75.63;99225.91;4807909;29;20607;-68
2022/01/25 19:35:32;;;;;;;17.92;10.25;;;;;;;-7.55;75.77;99236.28;4807592;29;20077;-70
2022/01/25 19:38:00;;;;;;;16.42;8.68;;;;;;;-7.52;76.16;99229.38;4808142;29;20561;-66
2022/01/25 19:40:29;;;;;;;15.82;8.00;;;;;;;-7.44;75.97;99234.50;4823968;29;20133;-66
2022/01/25 19:42:55;;;;;;;15.45;8.43;;;;;;;-7.63;76.65;99225.13;4824542;29;20128;-67
2022/01/25 19:45:22;;;;;;;17.08;8.85;;;;;;;-7.58;76.69;99234.59;4823782;29;20060;-65
2022/01/25 19:47:49;;;;;;;14.68;9.57;;;;;;;-7.60;76.52;99227.72;4792984;29;20057;-69
2022/01/25 19:50:24;;;;;;;20.35;7.78;;;;;;;-7.59;77.26;99238.06;4808190;29;20404;-69
2022/01/25 19:52:56;;;;;;;16.77;8.15;;;;;;;-7.70;77.80;99225.19;4807299;29;20057;-68
2022/01/25 19:55:26;;;;;;;19.02;8.85;;;;;;;-7.65;77.15;99217.38;4771277;29;20081;-70
2022/01/25 19:58:16;;;;;;;16.73;8.57;;;;;;;-7.65;77.78;99222.53;4788274;29;20149;-69
2022/01/25 20:00:43;;;;;;;21.20;10.15;;;;;;;-7.65;77.66;99221.69;4787816;29;20062;-70
2022/01/25 20:03:09;;;;;;;14.60;7.18;;;;;;;-7.62;77.18;99219.94;4786660;29;20140;-64
2022/01/25 20:05:36;;;;;;;14.30;8.25;;;;;;;-7.57;77.87;99215.63;4787639;29;20042;-65
2022/01/25 20:08:01;;;;;;;19.00;8.20;;;;;;;-7.72;77.53;99210.53;4787417;29;20586;-66
2022/01/25 20:10:28;;;;;;;22.08;10.43;;;;;;;-7.73;77.43;99220.00;4771197;29;20046;-66
2022/01/25 20:12:54;;;;;;;11.18;6.70;;;;;;;-7.64;77.56;99200.97;4756483;29;20050;-68
2022/01/25 20:15:19;;;;;;;19.05;8.85;;;;;;;-7.61;76.75;99213.03;4787539;29;20533;-68
2022/01/25 20:17:45;;;;;;;19.55;7.45;;;;;;;-7.57;76.61;99212.16;4771163;29;20485;-66
2022/01/25 20:23:25;;;;;;;15.77;7.72;;;;;;;-7.75;76.65;99208.81;4713565;30;20059;-68
2022/01/25 20:26:11;;;;;;;14.02;7.60;;;;;;;-7.76;76.92;99203.63;4730559;30;20126;-69
2022/01/25 20:28:39;;;;;;;15.02;7.88;;;;;;;-7.77;77.52;99209.66;4731766;30;20420;-69
2022/01/25 20:31:07;;;;;;;11.43;6.40;;;;;;;-7.77;76.59;99202.75;4718923;30;20055;-74
2022/01/25 20:33:37;;;;;;;14.82;6.43;;;;;;;-7.71;77.31;99209.66;4705420;30;20106;-70